Time;durP1;ratioP1;P1;durP2;ratioP2;P2;SDS_P1;SDS_P2;PMS_P1;PMS_P2;Temp;Humidity;BMP_temperature;BMP_pressure;BME280_temperature;BME280_humidity;BME280_pressure;Samples;Min_cycle;Max_cycle;Signal;HPM_P1;HPM_P2
2021/12/24 00:03:05;;;;;;;118.97;39.72;;;;;;;-0.36;100.00;99574.00;10317661;28;20056;-91
2021/12/24 00:08:06;;;;;;;105.63;39.67;;;;;;;-1.56;100.00;99241.47;10330272;28;20060;-91
2021/12/24 00:13:09;;;;;;;114.30;37.87;;;;;;;-0.24;100.00;99483.03;10354304;28;20045;-91
2021/12/24 00:18:21;;;;;;;118.15;37.47;;;;;;;3.07;100.00;100167.16;10346518;28;20045;-92
2021/12/24 00:39:19;;;;;;;97.32;35.80;;;;;;;0.09;100.00;99530.69;10405178;28;20053;-91
2021/12/24 00:44:19;;;;;;;109.68;36.15;;;;;;;-2.12;100.00;99117.03;10381652;28;20072;-87
2021/12/24 00:49:20;;;;;;;108.97;37.33;;;;;;;2.20;100.00;99905.16;10399833;28;20124;-86
2021/12/24 00:59:39;;;;;;;90.53;31.08;;;;;;;-1.16;100.00;99285.25;10389971;28;20076;-91
2021/12/24 01:04:40;;;;;;;105.55;33.83;;;;;;;0.75;100.00;99699.16;10401060;28;20132;-92
2021/12/24 01:09:43;;;;;;;113.00;34.80;;;;;;;1.27;100.00;99640.13;10368323;28;20029;-91
2021/12/24 01:14:48;;;;;;;86.50;29.40;;;;;;;-1.09;100.00;99415.69;10385688;28;20093;-92
2021/12/24 01:19:51;;;;;;;82.70;30.05;;;;;;;-0.08;100.00;99524.97;10416027;28;20469;-88
2021/12/24 01:25:18;;;;;;;101.05;32.22;;;;;;;-1.70;100.00;99127.38;10399850;28;20448;-87
2021/12/24 01:45:59;;;;;;;87.85;28.73;;;;;;;-1.33;100.00;99244.44;10409350;28;20033;-89
2021/12/24 01:51:07;;;;;;;82.63;28.02;;;;;;;-0.96;100.00;99404.00;10398859;28;20037;-89
2021/12/24 01:56:10;;;;;;;83.93;28.77;;;;;;;-1.50;100.00;99160.44;10369084;28;20033;-88
2021/12/24 02:01:13;;;;;;;66.70;24.50;;;;;;;-1.99;100.00;99161.97;10408420;28;20079;-89
2021/12/24 02:06:35;;;;;;;76.25;27.05;;;;;;;-2.13;100.00;99053.38;10407363;28;20033;-88
2021/12/24 02:11:56;;;;;;;68.53;24.20;;;;;;;-0.88;100.00;99244.34;10375180;28;20096;-89
2021/12/24 02:28:38;;;;;;;78.90;24.95;;;;;;;2.56;100.00;99671.75;10402797;28;20049;-90
2021/12/24 02:34:15;;;;;;;63.63;22.17;;;;;;;-1.49;100.00;99302.47;10343868;28;20072;-90
2021/12/24 02:39:30;;;;;;;;;;;;;;;;;;;;;
2021/12/24 02:44:36;;;;;;;60.73;21.03;;;;;;;-0.06;100.00;99398.41;10356869;28;20124;-93
2021/12/24 02:55:23;;;;;;;53.20;20.55;;;;;;;1.06;100.00;99475.22;10383525;28;20137;-89
2021/12/24 03:00:39;;;;;;;53.75;19.15;;;;;;;3.15;100.00;99783.41;10339227;28;20049;-89
2021/12/24 03:05:56;;;;;;;50.65;19.83;;;;;;;0.49;100.00;99378.72;10316430;28;20028;-89
2021/12/24 03:11:26;;;;;;;45.25;18.55;;;;;;;1.08;100.00;99410.75;10323068;28;20032;-89
2021/12/24 03:16:34;;;;;;;47.33;17.70;;;;;;;-1.65;100.00;98962.97;10361537;28;20056;-92
2021/12/24 03:21:58;;;;;;;51.03;19.95;;;;;;;0.69;100.00;99515.81;10326011;28;20121;-93
2021/12/24 03:27:03;;;;;;;43.50;16.63;;;;;;;0.57;100.00;99255.72;10354110;28;20050;-93
2021/12/24 03:32:06;;;;;;;55.50;20.40;;;;;;;0.32;100.00;99386.59;10332007;28;20042;-88
2021/12/24 03:37:17;;;;;;;45.50;18.10;;;;;;;3.17;100.00;99876.47;10318391;28;20375;-88
2021/12/24 03:42:20;;;;;;;43.03;17.77;;;;;;;2.14;100.00;99542.19;10367542;28;20065;-88
2021/12/24 03:47:25;;;;;;;47.90;19.17;;;;;;;1.40;100.00;99428.44;10347888;28;20061;-92
2021/12/24 03:57:49;;;;;;;50.90;20.30;;;;;;;0.99;100.00;99503.22;10350789;28;20026;-87
2021/12/24 04:02:49;;;;;;;65.43;26.10;;;;;;;2.82;100.00;99739.31;10346968;28;20038;-87
2021/12/24 04:07:50;;;;;;;67.82;26.38;;;;;;;-0.82;100.00;99043.53;10368713;28;20045;-92
2021/12/24 04:12:53;;;;;;;65.10;24.80;;;;;;;1.58;100.00;99456.59;10314991;28;20121;-93
2021/12/24 04:17:53;;;;;;;68.75;23.40;;;;;;;4.74;100.00;99896.91;10330793;28;20033;-92
2021/12/24 04:28:13;;;;;;;90.95;26.42;;;;;;;1.49;100.00;99335.91;10360730;28;20052;-93
2021/12/24 04:33:28;;;;;;;78.20;25.40;;;;;;;0.51;100.00;99260.19;10353529;28;20060;-93
2021/12/24 04:38:38;;;;;;;100.85;28.75;;;;;;;0.67;100.00;99341.88;10333188;28;20034;-92
2021/12/24 05:05:37;;;;;;;;;;;;;;;;;;;;;
2021/12/24 05:10:38;;;;;;;99.18;31.33;;;;;;;1.61;100.00;99355.75;10349366;28;20038;-93
2021/12/24 05:21:33;;;;;;;103.07;34.75;;;;;;;1.89;100.00;99253.88;10344340;28;20112;-89
2021/12/24 05:27:00;;;;;;;107.47;31.33;;;;;;;0.84;100.00;99229.09;10342127;28;20037;-92
2021/12/24 05:32:25;;;;;;;108.38;33.70;;;;;;;0.91;100.00;99151.25;10363984;28;20044;-92
2021/12/24 05:37:35;;;;;;;;;;;;;;;6.65;100.00;99943.75;10353791;28;20038;-93
2021/12/24 05:42:59;;;;;;;120.90;37.40;;;;;;;2.49;100.00;99321.41;10328051;28;19910;-94
2021/12/24 05:48:42;;;;;;;127.32;36.70;;;;;;;2.27;100.00;99250.59;10335149;28;20038;-96
2021/12/24 05:54:19;;;;;;;;;;;;;;;;;;;;;
2021/12/24 06:00:54;;;;;;;;;;;;;;;;;;;;;
2021/12/24 06:06:56;;;;;;;131.52;40.25;;;;;;;0.49;100.00;99167.50;10087682;29;20035;-94
2021/12/24 06:12:27;;;;;;;;;;;;;;;;;;;;;
2021/12/24 06:18:00;;;;;;;129.00;42.30;;;;;;;4.87;100.00;99647.63;10207876;28;20057;-94
2021/12/24 06:23:18;;;;;;;135.93;41.55;;;;;;;3.09;100.00;99428.09;10343514;28;20390;-92
2021/12/24 06:28:22;;;;;;;126.15;41.65;;;;;;;2.06;100.00;99246.63;10316936;28;20069;-94
2021/12/24 06:33:23;;;;;;;120.40;40.00;;;;;;;2.85;100.00;99555.88;10310293;28;20132;-93
2021/12/24 06:38:24;;;;;;;100.10;37.05;;;;;;;4.28;100.00;99680.63;10309939;28;20038;-94
2021/12/24 06:43:25;;;;;;;119.78;38.72;;;;;;;5.77;100.00;99825.97;10327043;28;20037;-93
2021/12/24 06:48:41;;;;;;;124.57;40.25;;;;;;;2.39;100.00;99335.59;10324965;28;20022;-90
2021/12/24 06:54:17;;;;;;;;;;;;;;;;;;;;;
2021/12/24 07:06:43;;;;;;;73.50;27.95;;;;;;;6.73;100.00;99974.53;10416010;28;20029;-94
2021/12/24 07:12:38;;;;;;;86.97;31.02;;;;;;;1.39;100.00;99307.50;10326042;28;20046;-96
2021/12/24 07:30:28;;;;;;;72.30;27.38;;;;;;;1.38;100.00;99129.56;10121664;29;20571;-92
2021/12/24 07:35:36;;;;;;;62.78;24.80;;;;;;;0.59;100.00;99167.78;10309529;28;20042;-90
2021/12/24 07:40:38;;;;;;;66.20;24.80;;;;;;;3.08;100.00;99562.38;10379632;28;20547;-89
2021/12/24 07:45:40;;;;;;;63.38;23.20;;;;;;;2.90;100.00;99571.50;10410904;28;20029;-92
2021/12/24 07:55:43;;;;;;;64.18;25.10;;;;;;;6.62;100.00;100137.66;10445476;28;20452;-93
2021/12/24 08:00:44;;;;;;;62.80;23.15;;;;;;;0.82;100.00;99079.50;10428413;28;20037;-93
2021/12/24 08:05:46;;;;;;;49.65;21.08;;;;;;;0.30;100.00;99160.50;10411355;28;20091;-94
2021/12/24 08:11:01;;;;;;;45.20;19.85;;;;;;;2.74;100.00;99605.66;10384246;28;20501;-92
2021/12/24 08:16:09;;;;;;;46.80;19.08;;;;;;;2.62;100.00;99443.44;10375996;28;20389;-95
2021/12/24 08:21:20;;;;;;;43.38;16.25;;;;;;;1.90;100.00;99258.22;10403532;28;20128;-93
2021/12/24 08:26:26;;;;;;;38.45;16.38;;;;;;;3.88;100.00;99688.78;10429156;28;20506;-91
2021/12/24 08:31:35;;;;;;;37.10;14.10;;;;;;;4.53;100.00;99862.91;10373474;28;20111;-94
2021/12/24 08:49:54;;;;;;;15.13;6.40;;;;;;;5.97;100.00;100051.44;10225090;29;19918;-92
2021/12/24 08:55:34;;;;;;;;;;;;;;;;;;;;;
2021/12/24 09:01:02;;;;;;;;;;;;;;;;;;;;;
2021/12/24 09:07:18;;;;;;;;;;;;;;;;;;;;;
2021/12/24 09:12:43;;;;;;;12.73;6.75;;;;;;;1.23;100.00;99573.84;10314651;28;20472;-91
2021/12/24 09:18:09;;;;;;;12.77;7.57;;;;;;;-1.03;100.00;99301.38;10356391;28;20047;-89
2021/12/24 09:23:10;;;;;;;19.17;8.68;;;;;;;0.96;100.00;99584.13;10367189;28;20030;-92
2021/12/24 09:28:22;;;;;;;22.38;10.05;;;;;;;-0.32;100.00;99358.88;10339526;28;20041;-92
2021/12/24 09:33:41;;;;;;;17.20;8.65;;;;;;;1.53;100.00;99750.25;10333429;28;20072;-94
2021/12/24 09:39:09;;;;;;;16.73;8.23;;;;;;;2.14;100.00;99731.44;10355562;28;20405;-95
2021/12/24 09:45:18;;;;;;;;;;;;;;;;;;;;;
2021/12/24 09:51:24;;;;;;;;;;;;;;;;;;;;;
2021/12/24 09:57:03;;;;;;;16.45;7.25;;;;;;;1.02;100.00;99623.06;10171100;29;20536;-92
2021/12/24 10:02:45;;;;;;;;;;;;;;;;;;;;;
2021/12/24 10:08:32;;;;;;;14.75;7.80;;;;;;;2.99;100.00;99976.03;10146144;29;20071;-92
2021/12/24 10:14:11;;;;;;;16.13;7.35;;;;;;;-0.89;100.00;99556.13;10059794;29;20033;-93
2021/12/24 10:20:09;;;;;;;;;;;;;;;;;;;;;
2021/12/24 10:25:51;;;;;;;20.50;9.10;;;;;;;-1.45;100.00;99360.38;10134363;29;20039;-89
2021/12/24 10:31:59;;;;;;;20.65;10.00;;;;;;;0.02;100.00;99805.06;10217866;28;20083;-94
2021/12/24 10:43:29;;;;;;;22.83;10.35;;;;;;;3.49;100.00;100268.09;10236963;28;20047;-92
2021/12/24 10:49:47;;;;;;;;;;;;;;;;;;;;;
2021/12/24 10:55:22;;;;;;;;;;;;;;;;;;;;;
2021/12/24 11:00:49;;;;;;;20.67;9.77;;;;;;;-0.01;100.00;99717.03;10267256;28;20043;-93
2021/12/24 11:06:25;;;;;;;;;;;;;;;;;;;;;
2021/12/24 11:11:35;;;;;;;24.00;10.10;;;;;;;2.54;100.00;100177.38;10276128;28;20135;-89
2021/12/24 11:16:46;;;;;;;;;;;;;;;;;;;;;
2021/12/24 11:22:16;;;;;;;27.23;11.07;;;;;;;2.39;100.00;100212.16;10378458;28;20040;-89
2021/12/24 11:27:40;;;;;;;19.97;10.03;;;;;;;-0.19;100.00;99655.47;10371153;28;20585;-95
2021/12/24 11:32:41;;;;;;;24.73;12.13;;;;;;;0.73;100.00;99896.31;10315812;28;20046;-88
2021/12/24 11:37:52;;;;;;;26.52;11.65;;;;;;;3.80;100.00;100213.56;10313845;28;20050;-88
2021/12/24 11:43:02;;;;;;;27.10;12.55;;;;;;;1.40;100.00;99992.53;10317600;28;20045;-94
2021/12/24 11:48:06;;;;;;;24.65;12.43;;;;;;;-2.28;100.00;99322.38;10333381;28;20116;-94
2021/12/24 11:53:12;;;;;;;24.13;12.23;;;;;;;-0.13;100.00;99640.28;10333995;28;20030;-88
2021/12/24 11:58:55;;;;;;;;;;;;;;;;;;;;;
2021/12/24 12:03:59;;;;;;;33.63;13.88;;;;;;;0.10;100.00;99819.19;10389741;28;20497;-88
2021/12/24 12:09:19;;;;;;;37.57;14.93;;;;;;;0.17;100.00;99660.31;10317953;28;20385;-88
2021/12/24 12:14:40;;;;;;;30.50;13.10;;;;;;;1.78;100.00;99978.16;10363711;28;20140;-95
2021/12/24 12:30:00;;;;;;;25.15;11.70;;;;;;;-2.37;100.00;99488.06;10478707;28;20040;-95
2021/12/24 12:35:03;;;;;;;22.35;10.60;;;;;;;1.37;100.00;100127.78;10472571;28;20114;-94
2021/12/24 12:40:30;;;;;;;24.53;11.10;;;;;;;-2.07;100.00;99310.53;10455734;28;20472;-95
2021/12/24 12:45:35;;;;;;;23.08;11.73;;;;;;;3.68;100.00;100245.31;10432839;28;20276;-88
2021/12/24 12:50:37;;;;;;;24.50;12.38;;;;;;;-2.89;100.00;99184.19;10450281;28;20036;-95
2021/12/24 12:55:40;;;;;;;24.97;12.23;;;;;;;-0.64;100.00;99680.56;10416449;28;20035;-94
2021/12/24 13:01:04;;;;;;;25.07;12.60;;;;;;;3.73;100.00;100244.63;10424400;28;20508;-96
2021/12/24 13:06:06;;;;;;;23.90;13.20;;;;;;;-0.51;100.00;99749.19;10403058;28;20044;-87
2021/12/24 13:11:15;;;;;;;22.40;12.27;;;;;;;2.34;100.00;100076.16;10367235;28;20069;-94
2021/12/24 13:16:17;;;;;;;27.80;14.10;;;;;;;1.29;100.00;99993.22;10370237;28;20134;-89
2021/12/24 13:26:59;;;;;;;90.20;51.53;;;;;;;-0.08;100.00;99773.03;10197723;29;20139;-88
2021/12/24 13:32:04;;;;;;;78.20;48.25;;;;;;;1.42;100.00;99913.69;10366643;28;20480;-94
2021/12/24 13:37:14;;;;;;;59.13;37.80;;;;;;;2.37;100.00;100290.31;10383419;28;20038;-93
2021/12/24 13:42:15;;;;;;;45.30;26.87;;;;;;;-0.10;100.00;99715.63;10386337;28;20037;-88
2021/12/24 13:47:26;;;;;;;37.25;21.08;;;;;;;0.78;100.00;99899.19;10423440;28;20025;-88
2021/12/24 13:58:14;;;;;;;25.53;14.63;;;;;;;-1.63;100.00;99551.84;10415078;28;20508;-87
2021/12/24 14:03:18;;;;;;;17.77;11.07;;;;;;;2.40;100.00;100235.56;10367974;28;20056;-93
2021/12/24 14:08:23;;;;;;;18.67;10.10;;;;;;;1.41;100.00;100156.97;10375709;28;20124;-88
2021/12/24 14:13:27;;;;;;;14.67;7.50;;;;;;;2.29;100.00;100103.13;10424617;28;20025;-92
2021/12/24 14:18:56;;;;;;;19.88;10.77;;;;;;;-1.00;100.00;99750.44;10404819;28;20283;-88
2021/12/24 14:24:12;;;;;;;14.70;9.18;;;;;;;1.07;100.00;99926.81;10401516;28;20038;-92
2021/12/24 14:29:31;;;;;;;19.83;10.17;;;;;;;-0.16;100.00;99792.22;10360888;28;20482;-88
2021/12/24 14:34:38;;;;;;;19.08;11.35;;;;;;;3.79;100.00;100342.59;10342895;28;20141;-89
2021/12/24 14:39:40;;;;;;;24.25;12.85;;;;;;;2.78;100.00;100177.63;10357436;28;20050;-88
2021/12/24 14:44:43;;;;;;;18.80;12.00;;;;;;;3.82;100.00;100415.69;10357008;28;20041;-88
2021/12/24 14:49:44;;;;;;;20.65;12.73;;;;;;;-2.60;100.00;99367.13;10358754;28;20029;-92
2021/12/24 14:55:09;;;;;;;27.00;15.03;;;;;;;3.79;100.00;100358.91;10375745;28;20448;-93
2021/12/24 15:00:11;;;;;;;20.58;12.63;;;;;;;-0.09;100.00;99829.00;10407289;28;20033;-93
2021/12/24 15:05:32;;;;;;;18.55;11.50;;;;;;;2.32;100.00;100200.50;10349081;28;20495;-93
2021/12/24 15:10:33;;;;;;;22.20;13.68;;;;;;;2.33;100.00;100202.97;10350682;28;20116;-94
2021/12/24 15:15:34;;;;;;;19.60;11.45;;;;;;;-0.80;100.00;99821.53;10333931;28;20132;-93
2021/12/24 15:20:34;;;;;;;20.27;11.23;;;;;;;1.50;100.00;100070.75;10348499;28;20040;-90
2021/12/24 15:25:36;;;;;;;16.20;9.53;;;;;;;1.08;100.00;100070.25;10336455;28;20185;-88
2021/12/24 15:30:37;;;;;;;19.60;10.67;;;;;;;-0.83;100.00;99667.91;10395803;28;20053;-93
2021/12/24 15:35:38;;;;;;;18.45;10.63;;;;;;;-2.15;100.00;99620.81;10401457;28;20440;-94
2021/12/24 15:40:38;;;;;;;16.17;9.03;;;;;;;-0.70;100.00;99807.63;10373789;28;20169;-93
2021/12/24 15:45:39;;;;;;;20.63;9.60;;;;;;;-1.92;100.00;99590.78;10373494;28;20029;-93
2021/12/24 15:50:39;;;;;;;16.40;4.87;;;;;;;-0.17;100.00;99912.25;10399614;28;20462;-88
2021/12/24 15:55:40;;;;;;;7.90;3.00;;;;;;;1.64;100.00;100302.19;10386978;28;20553;-94
2021/12/24 16:00:44;;;;;;;11.77;4.37;;;;;;;0.64;100.00;100062.81;10378658;28;20037;-93
2021/12/24 16:05:46;;;;;;;14.07;3.92;;;;;;;-1.68;100.00;99727.00;10406457;28;20101;-92
2021/12/24 16:10:47;;;;;;;14.33;5.53;;;;;;;-0.70;100.00;100018.47;10385622;28;20033;-87
2021/12/24 16:15:50;;;;;;;35.93;12.33;;;;;;;-1.84;100.00;99831.56;10397046;28;20037;-93
2021/12/24 16:20:51;;;;;;;34.23;14.33;;;;;;;-1.03;100.00;100165.84;10393551;28;20033;-92
2021/12/24 16:25:51;;;;;;;42.33;16.10;;;;;;;-1.74;100.00;99989.56;10391342;28;20485;-87
2021/12/24 16:30:52;;;;;;;45.00;17.90;;;;;;;-0.55;100.00;100123.75;10390111;28;20489;-92
2021/12/24 16:35:53;;;;;;;53.50;20.03;;;;;;;0.77;100.00;100328.34;10394596;28;20053;-88
2021/12/24 16:40:55;;;;;;;51.00;19.57;;;;;;;-1.59;100.00;100146.00;10394445;28;20057;-88
2021/12/24 16:45:55;;;;;;;45.43;18.73;;;;;;;-0.23;100.00;100227.72;10401547;28;20029;-94
2021/12/24 16:50:56;;;;;;;51.77;20.10;;;;;;;-0.42;100.00;100270.66;10372286;28;20467;-88
2021/12/24 16:55:56;;;;;;;45.27;19.83;;;;;;;-2.90;100.00;99846.91;10400258;28;20041;-93
2021/12/24 17:00:58;;;;;;;45.57;18.70;;;;;;;0.44;100.00;100429.25;10382102;28;20053;-88
2021/12/24 17:05:59;;;;;;;44.50;17.77;;;;;;;-3.38;100.00;99879.72;10397089;28;20079;-93
2021/12/24 17:10:59;;;;;;;40.10;17.53;;;;;;;-2.56;100.00;100034.84;10395484;28;20111;-93
2021/12/24 17:16:00;;;;;;;36.93;16.70;;;;;;;0.14;100.00;100342.81;10378102;28;20144;-93
2021/12/24 17:21:01;;;;;;;36.23;17.20;;;;;;;-2.75;100.00;99933.91;10387724;28;20555;-93
2021/12/24 17:26:01;;;;;;;39.13;16.63;;;;;;;-2.93;100.00;100116.63;10371162;28;20526;-88
2021/12/24 17:31:02;;;;;;;29.63;16.20;;;;;;;-3.42;100.00;99824.59;10399957;28;20045;-87
2021/12/24 17:36:03;;;;;;;28.80;15.43;;;;;;;-5.86;100.00;99454.00;10372526;28;20041;-88
2021/12/24 17:41:03;;;;;;;35.07;17.10;;;;;;;-5.71;100.00;99680.88;10382499;28;20440;-88
2021/12/24 17:46:04;;;;;;;30.60;15.23;;;;;;;-2.72;100.00;100138.25;10389254;28;20466;-94
2021/12/24 17:51:07;;;;;;;33.43;14.43;;;;;;;-2.39;100.00;100216.06;10367905;28;20132;-94
2021/12/24 17:56:08;;;;;;;30.17;13.83;;;;;;;0.94;100.00;100755.19;10370491;28;20049;-93
2021/12/24 18:01:08;;;;;;;30.03;14.33;;;;;;;-3.82;100.00;100049.16;10366979;28;20033;-88
2021/12/24 18:06:09;;;;;;;30.37;13.60;;;;;;;-5.23;100.00;99763.84;10364831;28;20482;-87
2021/12/24 18:11:12;;;;;;;32.00;15.77;;;;;;;-4.57;100.00;99804.38;10364798;28;20553;-87
2021/12/24 18:16:13;;;;;;;32.67;16.10;;;;;;;-4.00;100.00;99928.50;10384571;28;20045;-92
2021/12/24 18:21:14;;;;;;;40.30;18.17;;;;;;;-3.73;100.00;99948.56;10374209;28;20029;-92
2021/12/24 18:26:14;;;;;;;38.90;20.03;;;;;;;0.74;100.00;100718.94;10366301;28;20022;-88
2021/12/24 18:31:15;;;;;;;35.33;16.27;;;;;;;-2.84;100.00;100484.56;10380442;28;20049;-88
2021/12/24 18:36:16;;;;;;;37.77;17.30;;;;;;;-1.50;100.00;100541.72;10382143;28;20091;-88
2021/12/24 18:41:18;;;;;;;36.33;16.53;;;;;;;-6.88;100.00;99535.44;10367293;28;20041;-92
2021/12/24 18:46:25;;;;;;;34.83;15.60;;;;;;;-2.46;100.00;100422.66;10366737;28;20044;-93
2021/12/24 18:51:26;;;;;;;29.40;14.47;;;;;;;-1.92;100.00;100445.97;10367684;28;20060;-87
2021/12/24 18:56:26;;;;;;;27.67;13.63;;;;;;;-3.01;100.00;100257.56;10379766;28;20072;-90
2021/12/24 19:01:27;;;;;;;24.63;11.47;;;;;;;-2.93;100.00;100278.22;10363005;28;20068;-88
2021/12/24 19:06:28;;;;;;;31.80;12.27;;;;;;;-4.59;100.00;99927.28;10364050;28;20029;-93
2021/12/24 19:11:28;;;;;;;20.27;10.50;;;;;;;-3.91;100.00;100154.09;10366403;28;20041;-93
2021/12/24 19:16:29;;;;;;;24.47;10.67;;;;;;;-5.22;100.00;100049.94;10364448;28;20456;-87
2021/12/24 19:21:29;;;;;;;18.70;10.40;;;;;;;-7.23;100.00;99607.13;10378578;28;20121;-87
2021/12/24 19:26:30;;;;;;;20.43;9.37;;;;;;;-4.95;100.00;100169.47;10362829;28;20030;-87
2021/12/24 19:31:31;;;;;;;20.60;9.93;;;;;;;-4.75;100.00;100182.53;10365996;28;20128;-87
2021/12/24 19:36:31;;;;;;;19.93;9.57;;;;;;;-3.26;100.00;100464.22;10370526;28;20041;-87
2021/12/24 19:41:32;;;;;;;18.57;9.77;;;;;;;-2.95;100.00;100455.34;10371693;28;20555;-87
2021/12/24 19:46:32;;;;;;;18.67;8.90;;;;;;;-4.38;100.00;100254.47;10402668;28;20057;-87
2021/12/24 19:51:33;;;;;;;23.13;9.80;;;;;;;-2.90;100.00;100571.47;10370697;28;20045;-87
2021/12/24 19:56:36;;;;;;;15.57;7.67;;;;;;;-3.07;100.00;100439.56;10386376;28;20466;-87
2021/12/24 20:01:39;;;;;;;11.55;6.60;;;;;;;-6.14;100.00;99966.31;10371587;28;20041;-86
2021/12/24 20:06:41;;;;;;;23.30;8.00;;;;;;;-3.94;100.00;100245.91;10386401;28;20041;-87
2021/12/24 20:11:45;;;;;;;10.80;6.40;;;;;;;-3.28;100.00;100471.63;10370808;28;20482;-91
2021/12/24 20:16:47;;;;;;;11.50;4.47;;;;;;;-3.89;100.00;100259.63;10372322;28;20144;-91
2021/12/24 20:21:48;;;;;;;12.40;4.43;;;;;;;-4.84;100.00;100285.59;10368803;28;20398;-86
2021/12/24 20:26:48;;;;;;;14.07;4.87;;;;;;;-7.46;100.00;99643.56;10384109;28;20033;-86
2021/12/24 20:31:49;;;;;;;7.87;3.73;;;;;;;-6.03;100.00;100014.22;10383999;28;20045;-86
2021/12/24 20:36:49;;;;;;;9.53;4.30;;;;;;;-4.79;100.00;100187.41;10367578;28;20052;-86
2021/12/24 20:41:51;;;;;;;5.63;2.87;;;;;;;-3.42;100.00;100593.47;10368890;28;20069;-86
2021/12/24 20:46:51;;;;;;;5.17;2.33;;;;;;;-4.98;100.00;100257.56;10383734;28;20406;-86
2021/12/24 20:51:53;;;;;;;10.73;2.87;;;;;;;-5.43;100.00;100316.06;10383374;28;20025;-87
2021/12/24 20:56:56;;;;;;;8.13;2.20;;;;;;;-3.87;100.00;100584.91;10369390;28;20429;-90
2021/12/24 21:01:57;;;;;;;8.00;1.60;;;;;;;-5.27;100.00;100367.09;10385572;28;20052;-87
2021/12/24 21:06:57;;;;;;;5.67;1.83;;;;;;;-8.93;100.00;99692.94;10369026;28;20113;-90
2021/12/24 21:11:58;;;;;;;4.30;1.20;;;;;;;-7.55;100.00;100131.94;10368284;28;20481;-87
2021/12/24 21:16:58;;;;;;;3.30;1.20;;;;;;;-6.67;100.00;100205.91;10384767;28;20120;-90
2021/12/24 21:21:59;;;;;;;3.67;1.17;;;;;;;-6.87;100.00;100168.66;10367858;28;20459;-91
2021/12/24 21:26:59;;;;;;;5.03;1.03;;;;;;;-6.16;100.00;100263.06;10368391;28;20108;-90
2021/12/24 21:32:00;;;;;;;2.93;1.00;;;;;;;-3.19;100.00;100755.16;10369097;28;20553;-89
2021/12/24 21:37:01;;;;;;;6.37;1.20;;;;;;;-3.06;100.00;100852.44;10368025;28;20045;-91
2021/12/24 21:42:03;;;;;;;4.93;0.77;;;;;;;-5.07;100.00;100496.47;10368941;28;20033;-90
2021/12/24 21:47:06;;;;;;;4.20;0.90;;;;;;;-7.26;100.00;100169.06;10409162;28;20481;-90
2021/12/24 21:52:07;;;;;;;10.67;1.13;;;;;;;-4.10;100.00;100671.56;10408410;28;20469;-90
2021/12/24 21:57:08;;;;;;;4.97;0.90;;;;;;;-6.65;100.00;100269.00;10406942;28;20045;-87
2021/12/24 22:02:08;;;;;;;3.00;0.80;;;;;;;-5.71;100.00;100385.19;10406696;28;20064;-87
2021/12/24 22:12:29;;;;;;;6.57;0.93;;;;;;;-6.21;100.00;100361.84;10426927;28;20535;-86
2021/12/24 22:17:32;;;;;;;8.87;2.10;;;;;;;-2.50;100.00;100971.25;10405210;28;20033;-86
2021/12/24 22:22:32;;;;;;;5.67;1.00;;;;;;;-7.07;100.00;100269.69;10455113;28;20186;-86
2021/12/24 22:27:37;;;;;;;9.07;0.77;;;;;;;-7.24;100.00;100225.09;10405429;28;20127;-89
2021/12/24 22:32:39;;;;;;;1.60;0.90;;;;;;;-8.65;100.00;100133.06;10347713;28;20260;-84
2021/12/24 22:37:39;;;;;;;3.07;1.13;;;;;;;-3.88;100.00;100766.13;10328221;28;20132;-91
2021/12/24 22:42:40;;;;;;;5.30;1.07;;;;;;;-3.31;100.00;100828.19;10326618;28;20049;-88
2021/12/24 22:47:40;;;;;;;4.60;0.90;;;;;;;-7.08;100.00;100166.34;10310755;28;20072;-88
2021/12/24 22:52:41;;;;;;;4.87;1.10;;;;;;;-3.38;100.00;100918.66;10309271;28;20038;-83
2021/12/24 22:57:41;;;;;;;5.10;1.57;;;;;;;-4.24;100.00;100840.72;10308797;28;20038;-89
2021/12/24 23:02:42;;;;;;;6.63;0.80;;;;;;;-4.34;100.00;100634.72;10309649;28;20049;-82
2021/12/24 23:07:42;;;;;;;2.00;0.80;;;;;;;-3.42;100.00;100873.41;10312290;28;20033;-84
2021/12/24 23:12:43;;;;;;;4.23;1.30;;;;;;;-2.75;100.00;100951.50;10314974;28;20034;-83
2021/12/24 23:17:44;;;;;;;5.20;0.60;;;;;;;-3.90;100.00;100763.59;10331188;28;20119;-87
2021/12/24 23:22:45;;;;;;;2.90;0.63;;;;;;;-3.93;100.00;100780.03;10349679;28;20037;-91
2021/12/24 23:27:46;;;;;;;7.53;0.90;;;;;;;-4.56;100.00;100757.06;10317466;28;20022;-89
2021/12/24 23:32:46;;;;;;;2.87;0.40;;;;;;;-7.26;100.00;100339.41;10316398;28;20057;-90
2021/12/24 23:37:47;;;;;;;4.00;1.30;;;;;;;-4.47;100.00;100835.88;10315154;28;20041;-84
2021/12/24 23:42:48;;;;;;;6.40;0.70;;;;;;;-5.93;100.00;100569.72;10329594;28;20069;-84
2021/12/24 23:47:49;;;;;;;1.83;0.40;;;;;;;-6.34;100.00;100458.72;10329696;28;20458;-84
2021/12/24 23:52:53;;;;;;;8.43;2.07;;;;;;;-7.12;100.00;100403.09;10336442;28;20453;-84
2021/12/24 23:57:54;;;;;;;2.83;0.77;;;;;;;-6.92;100.00;100470.72;10377599;28;20064;-89
